createdAt,value
2017-12-11T00:00:15.276Z,97433.66
2017-12-11T00:01:17.745Z,97440.13
2017-12-11T00:02:20.237Z,97442.88
2017-12-11T00:03:22.694Z,97445.44
2017-12-11T00:04:25.198Z,97445.23
2017-12-11T00:05:27.665Z,97459.17
2017-12-11T00:06:30.140Z,97457.80
2017-12-11T00:07:32.605Z,97458.58
2017-12-11T00:08:35.068Z,97455.25
2017-12-11T00:09:37.561Z,97465.45
2017-12-11T00:10:40.051Z,97478.79
2017-12-11T00:11:42.521Z,97469.18
2017-12-11T00:12:44.982Z,97472.70
2017-12-11T00:13:47.456Z,97479.38
2017-12-11T00:14:49.918Z,97473.30
2017-12-11T00:15:52.467Z,97478.59
2017-12-11T00:16:54.941Z,97483.30
2017-12-11T00:17:57.404Z,97482.52
2017-12-11T00:18:59.880Z,97485.44
2017-12-11T00:20:02.344Z,97481.13
2017-12-11T00:21:04.816Z,97479.95
2017-12-11T00:22:07.298Z,97491.33
2017-12-11T00:23:09.852Z,97493.29
2017-12-11T00:24:12.328Z,97493.09
2017-12-11T00:25:14.808Z,97493.69
2017-12-11T00:26:17.267Z,97493.49
2017-12-11T00:27:19.723Z,97499.77
2017-12-11T00:28:22.198Z,97503.69
2017-12-11T00:29:24.670Z,97511.73
2017-12-11T00:30:27.122Z,97511.94
2017-12-11T00:31:29.582Z,97520.34
2017-12-11T00:32:32.046Z,97523.47
2017-12-11T00:33:34.512Z,97522.09
2017-12-11T00:34:36.973Z,97525.44
2017-12-11T00:35:39.448Z,97525.63
2017-12-11T00:36:41.904Z,97525.05
2017-12-11T00:37:44.371Z,97529.95
2017-12-11T00:38:46.834Z,97526.59
2017-12-11T00:39:49.301Z,97526.00
2017-12-11T00:40:51.754Z,97527.57
2017-12-11T00:41:54.210Z,97535.22
2017-12-11T00:42:56.662Z,97536.78
2017-12-11T00:43:59.114Z,97529.92
2017-12-11T00:45:01.589Z,97527.38
2017-12-11T00:46:04.056Z,97528.55
2017-12-11T00:47:06.512Z,97534.24
2017-12-11T00:48:08.985Z,97536.01
2017-12-11T00:49:11.438Z,97536.98
2017-12-11T00:50:13.890Z,97542.28
2017-12-11T00:51:16.342Z,97544.44
2017-12-11T00:52:18.800Z,97541.11
2017-12-11T00:53:21.266Z,97539.13
2017-12-11T00:54:23.733Z,97538.14
2017-12-11T00:55:26.196Z,97539.70
2017-12-11T00:56:28.660Z,97531.48
2017-12-11T00:57:31.136Z,97531.48
2017-12-11T00:58:33.608Z,97533.83
2017-12-11T00:59:36.072Z,97528.15
2017-12-11T01:00:38.526Z,97526.19
2017-12-11T01:01:41.034Z,97516.20
2017-12-11T01:02:43.468Z,97514.04
2017-12-11T01:03:45.924Z,97510.70
2017-12-11T01:04:48.381Z,97510.31
2017-12-11T01:05:50.837Z,97519.13
2017-12-11T01:06:53.305Z,97516.59
2017-12-11T01:07:55.762Z,97523.64
2017-12-11T01:08:58.229Z,97526.20
2017-12-11T01:10:00.678Z,97529.91
2017-12-11T01:11:03.141Z,97524.63
2017-12-11T01:12:05.640Z,97531.29
2017-12-11T01:13:08.106Z,97519.92
2017-12-11T01:14:10.575Z,97521.07
2017-12-11T01:15:13.185Z,97514.02
2017-12-11T01:16:15.635Z,97511.47
2017-12-11T01:17:18.113Z,97515.78
2017-12-11T01:18:20.582Z,97521.46
2017-12-11T01:19:23.030Z,97515.19
2017-12-11T01:20:25.497Z,97511.66
2017-12-11T01:21:27.951Z,97512.25
2017-12-11T01:22:30.420Z,97515.59
2017-12-11T01:23:32.884Z,97523.42
2017-12-11T01:24:35.339Z,97524.80
2017-12-11T01:25:37.810Z,97516.56
2017-12-11T01:26:40.266Z,97511.67
2017-12-11T01:27:42.758Z,97507.55
2017-12-11T01:28:45.210Z,97508.14
2017-12-11T01:29:47.662Z,97504.02
2017-12-11T01:30:50.114Z,97499.33
2017-12-11T01:31:52.585Z,97503.44
2017-12-11T01:32:55.061Z,97497.75
2017-12-11T01:33:57.519Z,97494.23
2017-12-11T01:34:59.965Z,97496.78
2017-12-11T01:36:02.421Z,97497.95
2017-12-11T01:37:04.965Z,97505.01
2017-12-11T01:38:07.418Z,97506.97
2017-12-11T01:39:09.870Z,97508.53
2017-12-11T01:40:12.337Z,97508.31
2017-12-11T01:41:14.804Z,97510.27
2017-12-11T01:42:17.251Z,97502.43
2017-12-11T01:43:19.714Z,97506.35
2017-12-11T01:44:22.180Z,97507.92
2017-12-11T01:45:24.654Z,97513.59
2017-12-11T01:46:27.114Z,97513.98
2017-12-11T01:47:29.570Z,97515.16
2017-12-11T01:48:32.034Z,97516.54
2017-12-11T01:49:34.485Z,97517.91
2017-12-11T01:50:36.935Z,97515.75
2017-12-11T01:51:39.404Z,97505.77
2017-12-11T01:52:41.867Z,97505.56
2017-12-11T01:53:44.338Z,97497.92
2017-12-11T01:54:46.819Z,97494.01
2017-12-11T01:55:49.278Z,97502.63
2017-12-11T01:56:51.746Z,97492.05
2017-12-11T01:57:54.203Z,97488.92
2017-12-11T01:58:56.676Z,97488.13
2017-12-11T01:59:59.153Z,97498.32
2017-12-11T02:01:01.611Z,97499.69
2017-12-11T02:02:04.080Z,97505.38
2017-12-11T02:03:06.544Z,97505.56
2017-12-11T02:04:09.012Z,97510.46
2017-12-11T02:05:11.492Z,97515.72
2017-12-11T02:06:13.951Z,97523.36
2017-12-11T02:07:16.422Z,97526.30
2017-12-11T02:08:18.884Z,97533.54
2017-12-11T02:09:21.353Z,97535.11
2017-12-11T02:10:23.828Z,97537.27
2017-12-11T02:11:26.316Z,97543.13
2017-12-11T02:12:28.788Z,97545.09
2017-12-11T02:13:31.260Z,97544.11
2017-12-11T02:14:33.737Z,97553.32
2017-12-11T02:15:36.201Z,97548.42
2017-12-11T02:16:38.681Z,97551.75
2017-12-11T02:17:41.161Z,97556.06
2017-12-11T02:18:43.614Z,97552.14
2017-12-11T02:19:46.080Z,97547.44
2017-12-11T02:20:48.538Z,97552.73
2017-12-11T02:21:51.000Z,97557.81
2017-12-11T02:22:53.480Z,97563.89
2017-12-11T02:23:55.948Z,97557.62
2017-12-11T02:24:58.412Z,97560.16
2017-12-11T02:26:00.893Z,97560.95
2017-12-11T02:27:03.371Z,97566.05
2017-12-11T02:28:05.818Z,97566.44
2017-12-11T02:29:08.282Z,97571.92
2017-12-11T02:30:10.745Z,97580.53
2017-12-11T02:31:13.222Z,97586.61
2017-12-11T02:32:15.678Z,97600.12
2017-12-11T02:33:18.145Z,97606.00
2017-12-11T02:34:20.606Z,97600.91
2017-12-11T02:35:23.215Z,97595.81
2017-12-11T02:36:25.708Z,97589.55
2017-12-11T02:37:28.167Z,97597.19
2017-12-11T02:38:30.687Z,97598.55
2017-12-11T02:39:33.167Z,97615.01
2017-12-11T02:40:35.665Z,97613.44
2017-12-11T02:41:38.118Z,97618.53
2017-12-11T02:42:40.570Z,97617.74
2017-12-11T02:43:43.032Z,97620.09
2017-12-11T02:44:45.494Z,97625.19
2017-12-11T02:45:47.986Z,97623.22
2017-12-11T02:46:50.442Z,97629.09
2017-12-11T02:47:52.922Z,97630.66
2017-12-11T02:48:55.404Z,97633.02
2017-12-11T02:49:57.860Z,97635.36
2017-12-11T02:51:00.347Z,97632.62
2017-12-11T02:52:02.797Z,97639.28
2017-12-11T02:53:05.260Z,97642.80
2017-12-11T02:54:07.829Z,97646.14
2017-12-11T02:55:10.287Z,97648.88
2017-12-11T02:56:12.777Z,97646.14
2017-12-11T02:57:15.243Z,97653.78
2017-12-11T02:58:17.732Z,97649.27
2017-12-11T02:59:20.202Z,97654.17
2017-12-11T03:00:22.688Z,97657.89
2017-12-11T03:01:25.174Z,97665.33
2017-12-11T03:02:27.638Z,97675.71
2017-12-11T03:03:30.094Z,97677.47
2017-12-11T03:04:32.568Z,97676.69
2017-12-11T03:05:35.049Z,97677.66
2017-12-11T03:06:37.545Z,97679.81
2017-12-11T03:07:39.998Z,97673.52
2017-12-11T03:08:42.458Z,97679.58
2017-12-11T03:09:44.937Z,97682.13
2017-12-11T03:10:47.424Z,97679.19
2017-12-11T03:11:49.920Z,97687.99
2017-12-11T03:12:52.467Z,97688.97
2017-12-11T03:13:54.936Z,97683.87
2017-12-11T03:14:57.403Z,97680.73
2017-12-11T03:15:59.864Z,97675.06
2017-12-11T03:17:02.359Z,97668.40
2017-12-11T03:18:04.810Z,97661.15
2017-12-11T03:19:08.123Z,97651.75
2017-12-11T03:20:10.604Z,97650.57
2017-12-11T03:21:13.050Z,97655.66
2017-12-11T03:22:15.521Z,97647.05
2017-12-11T03:23:17.990Z,97648.81
2017-12-11T03:24:20.453Z,97648.61
2017-12-11T03:25:22.917Z,97647.83
2017-12-11T03:26:25.391Z,97643.32
2017-12-11T03:27:27.875Z,97640.77
2017-12-11T03:28:30.353Z,97633.13
2017-12-11T03:29:32.852Z,97623.15
2017-12-11T03:30:35.325Z,97619.42
2017-12-11T03:31:37.800Z,97613.55
2017-12-11T03:32:40.282Z,97600.63
2017-12-11T03:33:42.750Z,97595.73
2017-12-11T03:34:45.224Z,97604.54
2017-12-11T03:35:47.700Z,97599.45
2017-12-11T03:36:50.185Z,97606.08
2017-12-11T03:37:52.654Z,97601.57
2017-12-11T03:38:55.120Z,97599.81
2017-12-11T03:39:57.570Z,97599.22
2017-12-11T03:41:00.041Z,97599.22
2017-12-11T03:42:02.549Z,97593.90
2017-12-11T03:43:05.038Z,97597.22
2017-12-11T03:44:07.494Z,97593.31
2017-12-11T03:45:09.964Z,97589.39
2017-12-11T03:46:12.422Z,97585.47
2017-12-11T03:47:14.945Z,97577.84
2017-12-11T03:48:17.453Z,97566.67
2017-12-11T03:49:19.917Z,97560.02
2017-12-11T03:50:22.392Z,97567.65
2017-12-11T03:51:24.859Z,97563.53
2017-12-11T03:52:27.341Z,97551.79
2017-12-11T03:53:29.840Z,97549.24
2017-12-11T03:54:32.307Z,97545.72
2017-12-11T03:55:34.771Z,97551.59
2017-12-11T03:56:37.232Z,97559.62
2017-12-11T03:57:39.730Z,97557.27
2017-12-11T03:58:42.233Z,97564.70
2017-12-11T03:59:44.724Z,97566.08
2017-12-11T04:00:47.336Z,97568.03
2017-12-11T04:01:49.798Z,97560.00
2017-12-11T04:02:52.262Z,97553.15
2017-12-11T04:03:54.745Z,97559.02
2017-12-11T04:04:57.220Z,97558.05
2017-12-11T04:05:59.683Z,97554.91
2017-12-11T04:07:02.146Z,97552.56
2017-12-11T04:08:04.611Z,97560.78
2017-12-11T04:09:07.074Z,97558.23
2017-12-11T04:10:09.553Z,97554.91
2017-12-11T04:11:12.033Z,97557.66
2017-12-11T04:12:14.499Z,97550.22
2017-12-11T04:13:16.962Z,97550.41
2017-12-11T04:14:19.446Z,97551.39
2017-12-11T04:15:21.907Z,97539.64
2017-12-11T04:16:24.395Z,97544.73
2017-12-11T04:17:26.859Z,97545.88
2017-12-11T04:18:29.317Z,97540.59
2017-12-11T04:19:31.786Z,97544.89
2017-12-11T04:20:34.270Z,97536.08
2017-12-11T04:21:36.744Z,97536.66
2017-12-11T04:22:39.224Z,97531.97
2017-12-11T04:23:41.700Z,97536.46
2017-12-11T04:24:44.204Z,97524.33
2017-12-11T04:25:46.688Z,97518.25
2017-12-11T04:26:49.174Z,97511.99
2017-12-11T04:27:51.660Z,97502.20
2017-12-11T04:28:54.140Z,97494.96
2017-12-11T04:29:56.640Z,97493.79
2017-12-11T04:30:59.113Z,97491.23
2017-12-11T04:32:01.592Z,97491.23
2017-12-11T04:33:04.054Z,97484.98
2017-12-11T04:34:06.529Z,97485.56
2017-12-11T04:35:09.020Z,97490.26
2017-12-11T04:36:11.474Z,97486.54
2017-12-11T04:37:13.938Z,97489.08
2017-12-11T04:38:16.411Z,97491.43
2017-12-11T04:39:18.874Z,97494.17
2017-12-11T04:40:21.409Z,97499.03
2017-12-11T04:41:23.881Z,97506.27
2017-12-11T04:42:26.360Z,97506.47
2017-12-11T04:43:28.838Z,97510.18
2017-12-11T04:44:31.325Z,97505.88
2017-12-11T04:45:33.801Z,97509.59
2017-12-11T04:46:36.276Z,97507.44
2017-12-11T04:47:38.764Z,97515.84
2017-12-11T04:48:41.222Z,97527.39
2017-12-11T04:49:43.697Z,97523.87
2017-12-11T04:50:46.193Z,97528.56
2017-12-11T04:51:48.664Z,97530.13
2017-12-11T04:52:51.130Z,97530.91
2017-12-11T04:53:53.608Z,97531.69
2017-12-11T04:54:56.062Z,97528.37
2017-12-11T04:55:58.542Z,97525.83
2017-12-11T04:57:00.999Z,97528.17
2017-12-11T04:58:03.476Z,97527.00
2017-12-11T04:59:05.947Z,97518.78
2017-12-11T05:00:08.408Z,97520.55
2017-12-11T05:01:10.914Z,97509.98
2017-12-11T05:02:13.388Z,97514.68
2017-12-11T05:03:15.854Z,97511.55
2017-12-11T05:04:18.344Z,97508.81
2017-12-11T05:05:20.810Z,97501.17
2017-12-11T05:06:23.314Z,97498.05
2017-12-11T05:07:25.786Z,97491.78
2017-12-11T05:08:28.260Z,97486.30
2017-12-11T05:09:30.726Z,97484.73
2017-12-11T05:10:33.192Z,97472.60
2017-12-11T05:11:35.662Z,97473.39
2017-12-11T05:12:38.144Z,97469.86
2017-12-11T05:13:40.622Z,97467.12
2017-12-11T05:14:43.108Z,97469.47
2017-12-11T05:15:45.580Z,97467.31
2017-12-11T05:16:48.048Z,97465.56
2017-12-11T05:17:50.520Z,97461.64
2017-12-11T05:18:52.985Z,97458.91
2017-12-11T05:19:55.472Z,97454.98
2017-12-11T05:20:57.948Z,97450.68
2017-12-11T05:22:00.444Z,97453.42
2017-12-11T05:23:02.925Z,97446.38
2017-12-11T05:24:05.396Z,97434.24
2017-12-11T05:25:07.918Z,97439.33
2017-12-11T05:26:10.391Z,97439.33
2017-12-11T05:27:12.850Z,97431.70
2017-12-11T05:28:15.323Z,97435.80
2017-12-11T05:29:17.797Z,97436.39
2017-12-11T05:30:20.266Z,97434.63
2017-12-11T05:31:22.860Z,97433.45
2017-12-11T05:32:25.326Z,97424.84
2017-12-11T05:33:27.790Z,97422.89
2017-12-11T05:34:30.280Z,97415.06
2017-12-11T05:35:32.761Z,97417.02
2017-12-11T05:36:35.239Z,97416.05
2017-12-11T05:37:37.813Z,97411.94
2017-12-11T05:38:40.283Z,97415.06
2017-12-11T05:39:42.750Z,97416.05
2017-12-11T05:40:45.228Z,97413.91
2017-12-11T05:41:47.704Z,97416.05
2017-12-11T05:42:50.165Z,97412.73
2017-12-11T05:43:52.670Z,97411.75
2017-12-11T05:44:55.185Z,97411.75
2017-12-11T05:45:57.654Z,97410.58
2017-12-11T05:47:00.123Z,97415.08
2017-12-11T05:48:02.583Z,97421.14
2017-12-11T05:49:05.073Z,97422.51
2017-12-11T05:50:07.537Z,97428.38
2017-12-11T05:51:10.007Z,97427.79
2017-12-11T05:52:12.480Z,97424.86
2017-12-11T05:53:14.957Z,97418.59
2017-12-11T05:54:17.444Z,97422.13
2017-12-11T05:55:19.924Z,97412.33
2017-12-11T05:56:22.390Z,97413.31
2017-12-11T05:57:24.864Z,97408.61
2017-12-11T05:58:27.337Z,97414.28
2017-12-11T05:59:29.806Z,97415.45
2017-12-11T06:00:32.284Z,97418.59
2017-12-11T06:01:34.765Z,97425.82
2017-12-11T06:02:37.218Z,97423.64
2017-12-11T06:03:39.688Z,97421.12
2017-12-11T06:04:42.164Z,97412.33
2017-12-11T06:05:44.659Z,97413.90
2017-12-11T06:06:47.155Z,97411.75
2017-12-11T06:07:49.606Z,97404.36
2017-12-11T06:08:52.081Z,97405.57
2017-12-11T06:09:54.552Z,97405.05
2017-12-11T06:10:57.076Z,97400.37
2017-12-11T06:11:59.551Z,97396.85
2017-12-11T06:13:02.026Z,97390.20
2017-12-11T06:14:04.512Z,97384.31
2017-12-11T06:15:06.978Z,97383.92
2017-12-11T06:16:09.443Z,97383.70
2017-12-11T06:17:11.945Z,97381.53
2017-12-11T06:18:14.466Z,97378.20
2017-12-11T06:19:16.950Z,97371.92
2017-12-11T06:20:19.414Z,97362.30
2017-12-11T06:21:21.909Z,97357.40
2017-12-11T06:22:24.410Z,97347.00
2017-12-11T06:23:26.862Z,97346.22
2017-12-11T06:24:29.369Z,97336.83
2017-12-11T06:25:31.838Z,97341.14
2017-12-11T06:26:34.306Z,97334.87
2017-12-11T06:27:36.788Z,97341.14
2017-12-11T06:28:39.274Z,97338.41
2017-12-11T06:29:41.756Z,97327.05
2017-12-11T06:30:44.214Z,97330.56
2017-12-11T06:31:46.670Z,97320.77
2017-12-11T06:32:49.122Z,97316.86
2017-12-11T06:33:51.588Z,97311.37
2017-12-11T06:34:54.091Z,97312.56
2017-12-11T06:35:56.611Z,97306.67
2017-12-11T06:36:59.040Z,97302.77
2017-12-11T06:38:01.510Z,97304.14
2017-12-11T06:39:03.966Z,97301.41
2017-12-11T06:40:06.469Z,97306.12
2017-12-11T06:41:08.952Z,97303.17
2017-12-11T06:42:11.424Z,97302.78
2017-12-11T06:43:13.881Z,97301.63
2017-12-11T06:44:16.339Z,97317.11
2017-12-11T06:45:18.810Z,97319.47
2017-12-11T06:46:21.278Z,97325.35
2017-12-11T06:47:23.772Z,97327.28
2017-12-11T06:48:26.253Z,97333.56
2017-12-11T06:49:28.714Z,97334.16
2017-12-11T06:50:31.217Z,97337.49
2017-12-11T06:51:33.670Z,97344.36
2017-12-11T06:52:36.130Z,97338.09
2017-12-11T06:53:38.593Z,97338.69
2017-12-11T06:54:41.068Z,97345.15
2017-12-11T06:55:43.551Z,97348.65
2017-12-11T06:56:46.024Z,97345.12
2017-12-11T06:57:48.499Z,97349.05
2017-12-11T06:58:50.964Z,97354.34
2017-12-11T06:59:53.452Z,97351.22
2017-12-11T07:00:55.952Z,97351.39
2017-12-11T07:01:58.522Z,97357.66
2017-12-11T07:03:01.083Z,97358.83
2017-12-11T07:04:03.557Z,97363.14
2017-12-11T07:05:06.023Z,97370.19
2017-12-11T07:06:08.507Z,97370.78
2017-12-11T07:07:10.974Z,97373.52
2017-12-11T07:08:13.446Z,97373.89
2017-12-11T07:09:15.936Z,97378.75
2017-12-11T07:10:18.421Z,97375.03
2017-12-11T07:11:20.926Z,97374.64
2017-12-11T07:12:23.390Z,97383.65
2017-12-11T07:13:25.876Z,97387.17
2017-12-11T07:14:28.424Z,97394.80
2017-12-11T07:15:30.933Z,97389.52
2017-12-11T07:16:33.441Z,97393.63
2017-12-11T07:17:35.907Z,97393.20
2017-12-11T07:18:38.379Z,97393.78
2017-12-11T07:19:40.835Z,97392.77
2017-12-11T07:20:43.311Z,97395.89
2017-12-11T07:21:45.798Z,97389.20
2017-12-11T07:22:48.266Z,97391.14
2017-12-11T07:23:50.730Z,97384.48
2017-12-11T07:24:53.208Z,97383.12
2017-12-11T07:25:55.674Z,97379.80
2017-12-11T07:26:58.162Z,97367.48
2017-12-11T07:28:00.630Z,97365.14
2017-12-11T07:29:03.140Z,97364.36
2017-12-11T07:30:05.610Z,97365.14
2017-12-11T07:31:08.081Z,97364.78
2017-12-11T07:32:10.567Z,97360.48
2017-12-11T07:33:13.071Z,97353.64
2017-12-11T07:34:15.542Z,97348.55
2017-12-11T07:35:18.020Z,97352.27
2017-12-11T07:36:20.486Z,97350.91
2017-12-11T07:37:22.981Z,97352.50
2017-12-11T07:38:25.462Z,97350.73
2017-12-11T07:39:27.931Z,97347.02
2017-12-11T07:40:30.409Z,97344.67
2017-12-11T07:41:32.893Z,97335.67
2017-12-11T07:42:35.406Z,97323.14
2017-12-11T07:43:37.875Z,97319.81
2017-12-11T07:44:40.356Z,97323.14
2017-12-11T07:45:42.819Z,97319.42
2017-12-11T07:46:45.296Z,97317.86
2017-12-11T07:47:47.927Z,97308.27
2017-12-11T07:48:50.395Z,97306.70
2017-12-11T07:49:52.858Z,97300.63
2017-12-11T07:50:55.328Z,97296.13
2017-12-11T07:51:58.058Z,97296.36
2017-12-11T07:53:00.522Z,97290.45
2017-12-11T07:54:02.986Z,97289.50
2017-12-11T07:55:05.473Z,97281.48
2017-12-11T07:56:07.952Z,97280.47
2017-12-11T07:57:10.433Z,97279.10
2017-12-11T07:58:12.941Z,97287.72
2017-12-11T07:59:15.406Z,97287.52
2017-12-11T08:00:17.897Z,97287.91
2017-12-11T08:01:20.381Z,97290.26
2017-12-11T08:02:22.861Z,97284.19
2017-12-11T08:03:25.360Z,97275.97
2017-12-11T08:04:27.831Z,97280.47
2017-12-11T08:05:30.308Z,97283.60
2017-12-11T08:06:32.774Z,97277.54
2017-12-11T08:07:35.269Z,97277.54
2017-12-11T08:08:37.739Z,97285.37
2017-12-11T08:09:40.203Z,97276.76
2017-12-11T08:10:42.680Z,97288.89
2017-12-11T08:11:45.134Z,97281.65
2017-12-11T08:12:47.618Z,97282.04
2017-12-11T08:13:50.114Z,97282.04
2017-12-11T08:14:52.578Z,97282.04
2017-12-11T08:15:55.061Z,97281.06
2017-12-11T08:16:57.585Z,97287.91
2017-12-11T08:18:00.049Z,97284.20
2017-12-11T08:19:02.521Z,97300.83
2017-12-11T08:20:04.990Z,97298.48
2017-12-11T08:21:07.473Z,97292.22
2017-12-11T08:22:09.969Z,97301.81
2017-12-11T08:23:12.441Z,97309.44
2017-12-11T08:24:14.932Z,97301.81
2017-12-11T08:25:17.402Z,97297.89
2017-12-11T08:26:19.901Z,97293.59
2017-12-11T08:27:22.371Z,97294.56
2017-12-11T08:28:24.842Z,97286.73
2017-12-11T08:29:27.320Z,97282.44
2017-12-11T08:30:29.790Z,97281.45
2017-12-11T08:31:32.273Z,97271.87
2017-12-11T08:32:34.758Z,97273.82
2017-12-11T08:33:37.242Z,97266.19
2017-12-11T08:34:39.703Z,97264.23
2017-12-11T08:35:42.201Z,97256.41
2017-12-11T08:36:44.684Z,97260.13
2017-12-11T08:37:47.150Z,97262.86
2017-12-11T08:38:49.628Z,97271.87
2017-12-11T08:39:52.100Z,97265.21
2017-12-11T08:40:54.576Z,97265.60
2017-12-11T08:41:57.056Z,97258.17
2017-12-11T08:42:59.526Z,97264.63
2017-12-11T08:44:02.033Z,97266.19
2017-12-11T08:45:04.498Z,97269.72
2017-12-11T08:46:06.984Z,97276.76
2017-12-11T08:47:09.458Z,97272.45
2017-12-11T08:48:11.960Z,97282.83
2017-12-11T08:49:14.436Z,97291.05
2017-12-11T08:50:16.894Z,97284.20
2017-12-11T08:51:19.344Z,97268.93
2017-12-11T08:52:21.822Z,97264.82
2017-12-11T08:53:24.274Z,97263.25
2017-12-11T08:54:26.730Z,97265.80
2017-12-11T08:55:29.220Z,97264.23
2017-12-11T08:56:31.717Z,97262.86
2017-12-11T08:57:34.188Z,97258.36
2017-12-11T08:58:36.643Z,97251.70
2017-12-11T08:59:39.103Z,97257.58
2017-12-11T09:00:41.571Z,97257.97
2017-12-11T09:01:44.063Z,97261.69
2017-12-11T09:02:46.526Z,97266.98
2017-12-11T09:03:49.001Z,97265.80
2017-12-11T09:04:51.492Z,97263.45
2017-12-11T09:05:53.974Z,97257.58
2017-12-11T09:06:56.457Z,97253.86
2017-12-11T09:07:58.927Z,97253.08
2017-12-11T09:09:01.382Z,97248.39
2017-12-11T09:10:03.851Z,97243.30
2017-12-11T09:11:06.333Z,97240.56
2017-12-11T09:12:08.821Z,97235.28
2017-12-11T09:13:11.308Z,97230.58
2017-12-11T09:14:13.781Z,97232.73
2017-12-11T09:15:16.255Z,97228.44
2017-12-11T09:16:18.736Z,97230.58
2017-12-11T09:17:21.213Z,97222.56
2017-12-11T09:18:23.667Z,97222.17
2017-12-11T09:19:26.141Z,97222.76
2017-12-11T09:20:28.595Z,97217.08
2017-12-11T09:21:31.066Z,97209.26
2017-12-11T09:22:33.550Z,97206.91
2017-12-11T09:23:36.061Z,97197.91
2017-12-11T09:24:38.601Z,97202.41
2017-12-11T09:25:41.092Z,97210.83
2017-12-11T09:26:43.565Z,97211.22
2017-12-11T09:27:46.037Z,97202.80
2017-12-11T09:28:48.504Z,97196.16
2017-12-11T09:29:50.963Z,97197.72
2017-12-11T09:30:53.436Z,97202.81
2017-12-11T09:31:55.898Z,97194.00
2017-12-11T09:32:58.362Z,97196.34
2017-12-11T09:34:00.818Z,97192.41
2017-12-11T09:35:03.292Z,97187.35
2017-12-11T09:36:05.759Z,97181.06
2017-12-11T09:37:08.248Z,97172.06
2017-12-11T09:38:10.733Z,97173.82
2017-12-11T09:39:13.217Z,97179.89
2017-12-11T09:40:15.705Z,97174.41
2017-12-11T09:41:18.181Z,97175.78
2017-12-11T09:42:20.665Z,97175.19
2017-12-11T09:43:23.130Z,97174.80
2017-12-11T09:44:25.604Z,97168.73
2017-12-11T09:45:28.088Z,97166.39
2017-12-11T09:46:30.557Z,97163.84
2017-12-11T09:47:33.023Z,97156.80
2017-12-11T09:48:35.495Z,97148.98
2017-12-11T09:49:37.963Z,97150.55
2017-12-11T09:50:41.563Z,97136.45
2017-12-11T09:51:44.026Z,97127.45
2017-12-11T09:52:46.504Z,97127.84
2017-12-11T09:53:48.984Z,97122.37
2017-12-11T09:54:51.464Z,97121.59
2017-12-11T09:55:53.926Z,97112.20
2017-12-11T09:56:56.390Z,97105.55
2017-12-11T09:57:58.872Z,97110.25
2017-12-11T09:59:01.343Z,97110.25
2017-12-11T10:00:03.829Z,97108.09
2017-12-11T10:01:06.295Z,97100.86
2017-12-11T10:02:08.753Z,97095.38
2017-12-11T10:03:11.232Z,97095.77
2017-12-11T10:04:13.698Z,97093.23
2017-12-11T10:05:16.169Z,97086.97
2017-12-11T10:06:18.645Z,97085.22
2017-12-11T10:07:21.134Z,97080.72
2017-12-11T10:08:23.613Z,97073.28
2017-12-11T10:09:26.087Z,97071.53
2017-12-11T10:10:28.550Z,97069.77
2017-12-11T10:11:31.011Z,97062.73
2017-12-11T10:12:33.486Z,97056.47
2017-12-11T10:13:35.950Z,97053.73
2017-12-11T10:14:38.414Z,97051.58
2017-12-11T10:15:40.880Z,97043.56
2017-12-11T10:16:43.341Z,97027.13
2017-12-11T10:17:45.817Z,97023.61
2017-12-11T10:18:48.290Z,97020.87
2017-12-11T10:19:50.746Z,97019.89
2017-12-11T10:20:53.234Z,97012.86
2017-12-11T10:21:55.700Z,97013.25
2017-12-11T10:22:58.191Z,97012.08
2017-12-11T10:24:00.664Z,97012.08
2017-12-11T10:25:03.147Z,97005.63
2017-12-11T10:26:05.606Z,97003.25
2017-12-11T10:27:08.066Z,96991.73
2017-12-11T10:28:10.530Z,96991.31
2017-12-11T10:29:12.994Z,96983.30
2017-12-11T10:30:15.469Z,96983.89
2017-12-11T10:31:17.949Z,96981.55
2017-12-11T10:32:20.433Z,96977.63
2017-12-11T10:33:22.922Z,96980.38
2017-12-11T10:34:25.399Z,96982.92
2017-12-11T10:35:27.873Z,96984.29
2017-12-11T10:36:30.345Z,96985.06
2017-12-11T10:37:32.813Z,96977.44
2017-12-11T10:38:35.282Z,96970.20
2017-12-11T10:39:37.792Z,96964.73
2017-12-11T10:40:40.268Z,96968.64
2017-12-11T10:41:42.730Z,96956.91
2017-12-11T10:42:45.245Z,96960.63
2017-12-11T10:43:47.723Z,96961.80
2017-12-11T10:44:50.204Z,96967.28
2017-12-11T10:45:52.668Z,96976.47
2017-12-11T10:46:55.153Z,96969.23
2017-12-11T10:47:57.610Z,96971.98
2017-12-11T10:49:00.084Z,96964.34
2017-12-11T10:50:02.547Z,96963.57
2017-12-11T10:51:05.020Z,96958.48
2017-12-11T10:52:07.501Z,96953.98
2017-12-11T10:53:09.963Z,96954.58
2017-12-11T10:54:12.446Z,96951.84
2017-12-11T10:55:14.932Z,96953.20
2017-12-11T10:56:17.396Z,96943.23
2017-12-11T10:57:19.858Z,96942.84
2017-12-11T10:58:22.336Z,96946.36
2017-12-11T10:59:24.798Z,96937.36
2017-12-11T11:00:27.266Z,96930.52
2017-12-11T11:01:29.810Z,96913.31
2017-12-11T11:02:32.270Z,96926.61
2017-12-11T11:03:34.745Z,96901.38
2017-12-11T11:04:37.217Z,96899.23
2017-12-11T11:05:39.682Z,96912.14
2017-12-11T11:06:42.142Z,96932.29
2017-12-11T11:07:44.602Z,96943.24
2017-12-11T11:08:47.081Z,96935.81
2017-12-11T11:09:49.546Z,96938.74
2017-12-11T11:10:52.024Z,96943.24
2017-12-11T11:11:54.489Z,96939.53
2017-12-11T11:12:56.954Z,96933.27
2017-12-11T11:13:59.444Z,96927.20
2017-12-11T11:15:01.907Z,96925.05
2017-12-11T11:16:04.370Z,96919.97
2017-12-11T11:17:06.881Z,96929.74
2017-12-11T11:18:09.356Z,96927.59
2017-12-11T11:19:11.861Z,96908.42
2017-12-11T11:20:14.332Z,96905.09
2017-12-11T11:21:16.792Z,96901.77
2017-12-11T11:22:19.269Z,96907.84
2017-12-11T11:23:21.744Z,96906.47
2017-12-11T11:24:24.211Z,96909.98
2017-12-11T11:25:26.679Z,96914.30
2017-12-11T11:26:29.135Z,96915.66
2017-12-11T11:27:31.595Z,96917.03
2017-12-11T11:28:34.058Z,96926.41
2017-12-11T11:29:36.580Z,96925.44
2017-12-11T11:30:39.940Z,96923.88
2017-12-11T11:31:42.421Z,96928.57
2017-12-11T11:32:44.874Z,96927.99
2017-12-11T11:33:47.338Z,96927.80
2017-12-11T11:34:49.802Z,96926.81
2017-12-11T11:35:52.283Z,96921.73
2017-12-11T11:36:54.742Z,96923.30
2017-12-11T11:37:57.202Z,96919.19
2017-12-11T11:38:59.667Z,96912.34
2017-12-11T11:40:02.142Z,96913.33
2017-12-11T11:41:04.610Z,96908.83
2017-12-11T11:42:07.088Z,96911.75
2017-12-11T11:43:09.561Z,96925.05
2017-12-11T11:44:12.040Z,96929.94
2017-12-11T11:45:14.516Z,96917.23
2017-12-11T11:46:16.994Z,96923.89
2017-12-11T11:47:19.456Z,96934.84
2017-12-11T11:48:21.940Z,96936.98
2017-12-11T11:49:24.436Z,96948.14
2017-12-11T11:50:27.007Z,96959.09
2017-12-11T11:51:29.471Z,96953.81
2017-12-11T11:52:31.938Z,96946.97
2017-12-11T11:53:34.418Z,96934.06
2017-12-11T11:54:36.888Z,96925.47
2017-12-11T11:55:39.348Z,96927.03
2017-12-11T11:56:41.828Z,96915.30
2017-12-11T11:57:44.304Z,96900.24
2017-12-11T11:58:46.780Z,96895.36
2017-12-11T11:59:49.247Z,96890.08
2017-12-11T12:00:51.718Z,96886.53
2017-12-11T12:01:54.170Z,96893.38
2017-12-11T12:02:56.634Z,96896.12
2017-12-11T12:03:59.099Z,96902.18
2017-12-11T12:05:01.581Z,96904.14
2017-12-11T12:06:04.051Z,96900.23
2017-12-11T12:07:06.528Z,96906.30
2017-12-11T12:08:09.005Z,96898.87
2017-12-11T12:09:11.480Z,96904.73
2017-12-11T12:10:13.946Z,96909.81
2017-12-11T12:11:16.410Z,96906.09
2017-12-11T12:12:18.878Z,96900.03
2017-12-11T12:13:21.338Z,96898.09